Time;durP1;ratioP1;P1;durP2;ratioP2;P2;SDS_P1;SDS_P2;PMS_P1;PMS_P2;Temp;Humidity;BMP_temperature;BMP_pressure;BME280_temperature;BME280_humidity;BME280_pressure;Samples;Min_cycle;Max_cycle;Signal;HPM_P1;HPM_P2
2022/04/10 00:03:24;;;;;;;4.50;2.00;;;;;;;0.73;100.00;96233.59;10362618;28;20699;-59
2022/04/10 00:08:25;;;;;;;7.33;2.97;;;;;;;0.63;100.00;96231.66;10360518;28;20250;-55
2022/04/10 00:13:25;;;;;;;8.00;2.23;;;;;;;0.62;100.00;96227.41;10362899;28;20217;-58
2022/04/10 00:18:25;;;;;;;4.00;2.10;;;;;;;0.60;100.00;96234.44;10361599;28;20306;-58
2022/04/10 00:23:26;;;;;;;2.97;1.80;;;;;;;0.60;100.00;96233.59;10360834;28;20722;-59
2022/04/10 00:28:26;;;;;;;3.00;1.93;;;;;;;0.65;100.00;96234.94;10361400;28;21653;-59
2022/04/10 00:33:27;;;;;;;3.43;1.90;;;;;;;0.77;100.00;96241.00;10384672;28;20227;-60
2022/04/10 00:38:27;;;;;;;4.17;2.10;;;;;;;0.79;100.00;96253.78;10421726;22;20308;-53
2022/04/10 00:43:32;;;;;;;3.03;1.90;;;;;;;0.89;100.00;96253.03;10409678;28;20185;-52
2022/04/10 00:48:33;;;;;;;3.90;1.90;;;;;;;0.81;100.00;96254.47;10409664;28;20214;-53
2022/04/10 00:53:34;;;;;;;6.43;2.40;;;;;;;0.86;100.00;96260.16;10408735;28;20212;-52
2022/04/10 00:58:34;;;;;;;3.47;2.20;;;;;;;0.91;100.00;96252.09;10409118;28;20634;-52
2022/04/10 01:03:35;;;;;;;3.90;2.63;;;;;;;0.92;100.00;96259.72;10408431;28;20199;-52
2022/04/10 01:08:36;;;;;;;4.33;2.20;;;;;;;0.95;100.00;96262.09;10407567;28;20211;-52
2022/04/10 01:13:37;;;;;;;3.33;2.70;;;;;;;1.03;100.00;96264.13;10398602;28;20207;-58
2022/04/10 01:18:38;;;;;;;3.47;2.67;;;;;;;1.10;100.00;96264.50;10415646;28;20212;-51
2022/04/10 01:23:39;;;;;;;6.70;3.20;;;;;;;1.00;100.00;96264.34;10400187;28;20282;-53
2022/04/10 01:29:04;;;;;;;4.43;2.90;;;;;;;1.02;100.00;96278.75;10415469;28;20212;-54
2022/04/10 01:34:09;;;;;;;7.10;2.73;;;;;;;1.10;100.00;96282.56;10415661;28;20215;-54
2022/04/10 01:39:12;;;;;;;5.87;2.90;;;;;;;0.96;100.00;96278.38;10414701;28;20284;-53
2022/04/10 01:44:13;;;;;;;4.70;2.67;;;;;;;1.04;100.00;96274.34;10414376;28;20205;-52
2022/04/10 01:49:14;;;;;;;4.57;2.50;;;;;;;0.99;100.00;96284.13;10414672;28;20567;-53
2022/04/10 01:54:15;;;;;;;5.30;2.60;;;;;;;1.06;100.00;96285.38;10415683;28;20224;-55
2022/04/10 01:59:15;;;;;;;6.93;3.17;;;;;;;0.83;100.00;96284.41;10414567;28;20788;-53
2022/04/10 02:04:17;;;;;;;5.17;2.90;;;;;;;0.85;100.00;96277.38;10414384;28;20218;-57
2022/04/10 02:09:18;;;;;;;10.30;2.93;;;;;;;0.87;100.00;96283.25;10415966;28;20204;-54
2022/04/10 02:14:19;;;;;;;3.23;2.37;;;;;;;0.92;100.00;96280.38;10414132;28;20220;-57
2022/04/10 02:19:20;;;;;;;7.63;2.90;;;;;;;0.83;100.00;96281.00;10413693;28;20291;-53
2022/04/10 02:24:20;;;;;;;5.63;2.70;;;;;;;0.74;100.00;96281.66;10415407;28;20192;-55
2022/04/10 02:29:21;;;;;;;8.47;2.80;;;;;;;0.75;100.00;96288.44;10413128;28;20213;-58
2022/04/10 02:34:21;;;;;;;6.50;2.53;;;;;;;0.67;100.00;96299.28;10413403;28;20220;-53
2022/04/10 02:39:22;;;;;;;9.80;2.47;;;;;;;0.66;100.00;96306.19;10413355;28;20260;-57
2022/04/10 02:44:22;;;;;;;4.57;2.07;;;;;;;0.63;100.00;96303.81;10413704;28;20191;-57
2022/04/10 02:49:22;;;;;;;7.80;2.17;;;;;;;0.63;100.00;96308.13;10412523;28;20206;-57
2022/04/10 02:54:23;;;;;;;10.73;2.20;;;;;;;0.58;100.00;96305.88;10413183;28;20243;-56
2022/04/10 02:59:24;;;;;;;10.07;2.07;;;;;;;0.49;100.00;96311.66;10413285;28;20216;-56
2022/04/10 03:04:25;;;;;;;8.80;2.33;;;;;;;0.58;100.00;96300.72;10407435;28;20194;-60
2022/04/10 03:09:25;;;;;;;6.10;1.80;;;;;;;0.60;100.00;96296.31;10405213;28;20218;-54
2022/04/10 03:14:28;;;;;;;12.00;2.90;;;;;;;0.50;100.00;96297.84;10404282;28;20226;-56
2022/04/10 03:19:29;;;;;;;7.23;1.80;;;;;;;0.57;100.00;96300.81;10404573;28;20212;-57
2022/04/10 03:24:29;;;;;;;5.70;2.07;;;;;;;0.50;100.00;96303.81;10405213;28;20191;-53
2022/04/10 03:29:30;;;;;;;6.10;2.00;;;;;;;0.35;100.00;96305.72;10405369;28;20211;-53
2022/04/10 03:34:30;;;;;;;7.20;2.20;;;;;;;0.29;100.00;96311.28;10403553;28;20215;-56
2022/04/10 03:39:31;;;;;;;7.13;2.10;;;;;;;0.40;100.00;96325.16;10402663;28;20244;-54
2022/04/10 03:44:33;;;;;;;6.90;1.90;;;;;;;0.48;100.00;96330.66;10401549;28;20287;-52
2022/04/10 03:49:34;;;;;;;5.53;1.90;;;;;;;0.51;100.00;96328.66;10403149;28;20215;-53
2022/04/10 03:54:36;;;;;;;4.07;1.77;;;;;;;0.53;100.00;96338.88;10402051;28;20278;-54
2022/04/10 03:59:36;;;;;;;6.50;2.03;;;;;;;0.43;100.00;96340.41;10402944;28;20212;-54
2022/04/10 04:04:37;;;;;;;5.77;2.27;;;;;;;0.42;100.00;96344.75;10408480;28;20191;-53
2022/04/10 04:09:38;;;;;;;4.47;1.87;;;;;;;0.49;100.00;96352.88;10410327;28;20243;-55
2022/04/10 04:14:39;;;;;;;8.00;2.30;;;;;;;0.35;100.00;96364.97;10409273;28;20247;-56
2022/04/10 04:19:40;;;;;;;7.20;1.90;;;;;;;0.40;100.00;96369.81;10410264;28;20276;-57
2022/04/10 04:24:40;;;;;;;6.20;2.20;;;;;;;0.30;100.00;96373.91;10409140;28;20243;-53
2022/04/10 04:29:41;;;;;;;9.17;2.43;;;;;;;0.29;100.00;96385.97;10410654;28;20292;-52
2022/04/10 04:34:42;;;;;;;9.77;2.47;;;;;;;0.35;100.00;96382.16;10410182;28;20224;-53
2022/04/10 04:39:42;;;;;;;4.80;2.50;;;;;;;0.35;100.00;96382.16;10409386;28;20263;-58
2022/04/10 04:44:44;;;;;;;3.77;2.17;;;;;;;0.39;100.00;96388.75;10407741;28;20185;-57
2022/04/10 04:49:44;;;;;;;7.20;2.37;;;;;;;0.40;100.00;96397.31;10408964;28;20290;-53
2022/04/10 04:54:45;;;;;;;5.37;2.30;;;;;;;0.33;100.00;96408.03;10408477;28;20222;-52
2022/04/10 04:59:46;;;;;;;9.40;2.40;;;;;;;0.45;100.00;96416.69;10408759;28;20240;-56
2022/04/10 05:04:46;;;;;;;5.80;2.30;;;;;;;0.45;100.00;96416.69;10408194;28;20272;-55
2022/04/10 05:09:47;;;;;;;4.87;2.30;;;;;;;0.47;100.00;96414.84;10408302;28;20751;-55
2022/04/10 05:14:48;;;;;;;8.70;2.37;;;;;;;0.59;100.00;96414.97;10408134;28;20212;-56
2022/04/10 05:19:49;;;;;;;4.33;2.20;;;;;;;0.46;100.00;96426.09;10408586;28;20221;-54
2022/04/10 05:24:50;;;;;;;7.27;2.50;;;;;;;0.47;100.00;96432.06;10408261;28;20190;-51
2022/04/10 05:29:51;;;;;;;5.67;2.70;;;;;;;0.45;100.00;96447.63;10409258;28;20219;-54
2022/04/10 05:34:52;;;;;;;4.50;2.30;;;;;;;0.63;100.00;96452.47;10408518;28;20212;-57
2022/04/10 05:39:54;;;;;;;5.77;1.97;;;;;;;0.67;100.00;96454.78;10408447;28;20323;-60
2022/04/10 05:45:02;;;;;;;6.43;2.40;;;;;;;0.83;100.00;96458.94;10407130;28;20551;-55
2022/04/10 05:50:04;;;;;;;5.10;2.20;;;;;;;0.91;100.00;96461.00;10407926;28;20215;-57
2022/04/10 05:55:06;;;;;;;6.73;2.30;;;;;;;0.77;100.00;96459.34;10409069;28;20207;-54
2022/04/10 06:00:10;;;;;;;5.90;2.63;;;;;;;0.94;100.00;96456.44;10417267;28;20239;-58
2022/04/10 06:05:16;;;;;;;6.40;2.10;;;;;;;0.85;100.00;96464.78;10415957;28;20201;-55
2022/04/10 06:10:27;;;;;;;5.80;2.20;;;;;;;0.92;100.00;96478.94;10399551;28;20718;-56
2022/04/10 06:15:27;;;;;;;9.10;2.87;;;;;;;1.06;100.00;96476.25;10414088;28;20199;-56
2022/04/10 06:20:32;;;;;;;5.70;2.20;;;;;;;1.19;100.00;96481.38;10414128;28;20205;-58
2022/04/10 06:25:33;;;;;;;7.80;2.50;;;;;;;1.13;100.00;96484.38;10413267;28;20220;-56
2022/04/10 06:30:34;;;;;;;5.40;2.10;;;;;;;0.97;100.00;96489.75;10414111;28;20702;-57
2022/04/10 06:35:34;;;;;;;9.97;2.57;;;;;;;1.34;100.00;96484.69;10414624;28;20302;-56
2022/04/10 06:40:38;;;;;;;10.37;2.70;;;;;;;1.45;100.00;96486.53;10445462;22;20252;-57
2022/04/10 06:45:40;;;;;;;3.83;2.30;;;;;;;1.63;100.00;96486.22;10413282;28;20188;-53
2022/04/10 06:50:54;;;;;;;4.20;1.87;;;;;;;1.68;100.00;96490.09;10413386;28;20228;-53
2022/04/10 06:56:01;;;;;;;9.63;2.33;;;;;;;1.94;100.00;96493.44;10412683;28;20192;-53
2022/04/10 07:01:07;;;;;;;5.57;2.27;;;;;;;2.08;100.00;96489.91;10413046;28;20205;-54
2022/04/10 07:06:08;;;;;;;5.67;2.40;;;;;;;1.85;100.00;96485.50;10412428;28;20632;-53
2022/04/10 07:11:11;;;;;;;10.63;2.50;;;;;;;1.93;100.00;96486.63;10411262;28;20212;-56
2022/04/10 07:16:11;;;;;;;4.90;2.00;;;;;;;2.35;100.00;96491.41;10409598;28;20196;-56
2022/04/10 07:21:12;;;;;;;3.87;2.10;;;;;;;2.46;99.66;96499.22;10413053;28;20205;-54
2022/04/10 07:26:14;;;;;;;4.00;2.20;;;;;;;2.00;96.74;96489.59;10410991;28;20238;-54
2022/04/10 07:31:17;;;;;;;6.20;2.40;;;;;;;2.29;96.60;96494.44;10403987;28;20699;-54
2022/04/10 07:36:17;;;;;;;5.70;2.23;;;;;;;2.01;97.62;96505.94;10399053;28;20638;-56
2022/04/10 07:41:18;;;;;;;9.50;3.20;;;;;;;2.17;95.88;96498.72;10400536;28;20315;-57
2022/04/10 07:52:03;;;;;;;12.87;4.40;;;;;;;2.03;93.65;96497.13;10365985;28;20253;-56
2022/04/10 07:57:16;;;;;;;6.77;2.77;;;;;;;1.88;94.71;96498.22;10395129;28;20527;-55
2022/04/10 08:02:17;;;;;;;8.37;2.70;;;;;;;2.05;94.94;96518.53;10410677;28;20208;-58
2022/04/10 08:07:17;;;;;;;6.27;2.57;;;;;;;1.96;94.29;96524.31;10410190;28;20254;-54
2022/04/10 08:12:19;;;;;;;6.97;2.77;;;;;;;1.96;95.59;96539.81;10410451;28;20227;-58
2022/04/10 08:17:19;;;;;;;11.77;3.77;;;;;;;1.80;96.59;96542.66;10411032;28;20670;-54
2022/04/10 08:22:26;;;;;;;6.20;3.20;;;;;;;2.24;93.89;96537.91;10411103;28;20833;-57
2022/04/10 08:27:27;;;;;;;8.03;2.30;;;;;;;2.54;92.35;96531.44;10410070;28;20557;-58
2022/04/10 08:32:34;;;;;;;8.37;2.67;;;;;;;2.71;89.53;96518.13;10410995;28;20227;-59
2022/04/10 08:37:35;;;;;;;8.23;2.43;;;;;;;2.41;89.12;96524.56;10409639;28;20192;-59
2022/04/10 08:42:35;;;;;;;10.97;2.80;;;;;;;2.64;90.88;96543.59;10410358;28;20184;-59
2022/04/10 08:47:38;;;;;;;7.80;2.27;;;;;;;2.28;93.00;96572.91;10410045;28;20243;-54
2022/04/10 08:52:39;;;;;;;11.43;2.90;;;;;;;2.04;97.55;96596.16;10409445;28;20256;-57
2022/04/10 08:57:39;;;;;;;17.90;7.80;;;;;;;2.32;98.71;96603.59;10409745;28;20687;-55
2022/04/10 09:02:47;;;;;;;8.60;5.83;;;;;;;2.21;98.82;96602.72;10409800;28;20234;-55
2022/04/10 09:08:13;;;;;;;11.57;3.23;;;;;;;2.15;99.10;96601.38;10409704;28;20254;-57
2022/04/10 09:13:13;;;;;;;12.30;4.20;;;;;;;2.38;98.30;96602.34;10409149;28;20227;-55
2022/04/10 09:18:13;;;;;;;8.23;2.77;;;;;;;2.56;99.71;96614.91;10385348;28;20247;-56
2022/04/10 09:23:14;;;;;;;5.77;2.37;;;;;;;2.85;96.74;96587.78;10386726;28;20287;-60
2022/04/10 09:28:14;;;;;;;11.50;2.80;;;;;;;3.69;92.43;96566.06;10386611;28;20224;-61
2022/04/10 09:33:14;;;;;;;4.90;2.60;;;;;;;3.52;87.45;96533.69;10390944;28;20229;-62
2022/04/10 09:38:28;;;;;;;5.20;2.13;;;;;;;5.63;89.13;96555.72;10394920;28;20319;-59
2022/04/10 09:43:29;;;;;;;8.10;2.20;;;;;;;5.94;84.41;96528.88;10395402;28;20216;-59
2022/04/10 09:48:30;;;;;;;3.30;2.00;;;;;;;4.32;86.43;96553.41;10390628;28;20247;-53
2022/04/10 09:53:32;;;;;;;8.27;2.10;;;;;;;4.34;83.89;96530.75;10389786;28;20220;-54
2022/04/10 09:58:32;;;;;;;4.27;2.73;;;;;;;2.83;92.99;96637.97;10388471;28;20225;-54
2022/04/10 10:03:36;;;;;;;5.23;2.47;;;;;;;3.00;99.50;96629.00;10389962;28;20205;-55
2022/04/10 10:08:37;;;;;;;7.03;2.53;;;;;;;3.07;100.00;96621.63;10389203;28;20324;-53
2022/04/10 10:13:38;;;;;;;4.60;2.60;;;;;;;4.04;99.42;96601.41;10389423;28;20343;-54
2022/04/10 10:18:39;;;;;;;8.53;2.70;;;;;;;3.46;96.08;96583.34;10387996;28;20714;-53
2022/04/10 10:23:43;;;;;;;7.13;2.93;;;;;;;2.94;99.96;96621.66;10411221;28;20669;-54
2022/04/10 10:29:09;;;;;;;8.37;4.23;;;;;;;2.31;100.00;96642.47;10413967;28;20209;-54
2022/04/10 10:34:10;;;;;;;8.17;3.90;;;;;;;2.44;100.00;96645.06;10413493;28;20248;-56
2022/04/10 10:39:10;;;;;;;5.50;3.77;;;;;;;3.67;100.00;96633.53;10413215;28;20260;-56
2022/04/10 10:44:33;;;;;;;6.73;3.73;;;;;;;4.51;100.00;96633.19;10414096;28;20181;-56
2022/04/10 10:49:45;;;;;;;9.67;4.03;;;;;;;4.67;100.00;96621.59;10413032;28;20213;-57
2022/04/10 10:54:51;;;;;;;12.07;3.67;;;;;;;3.82;100.00;96602.25;10414093;28;20704;-56
2022/04/10 10:59:53;;;;;;;11.03;4.07;;;;;;;4.77;100.00;96604.34;10414821;28;20228;-54
2022/04/10 11:04:55;;;;;;;11.33;3.57;;;;;;;6.32;100.00;96569.00;10412365;28;20195;-54
2022/04/10 11:10:10;;;;;;;6.53;2.33;;;;;;;8.00;85.38;96481.66;10413607;28;20208;-56
2022/04/10 11:15:21;;;;;;;7.57;2.60;;;;;;;7.69;80.38;96486.34;10383910;28;20218;-53
2022/04/10 11:20:23;;;;;;;4.70;2.23;;;;;;;4.71;85.15;96555.53;10414525;28;20623;-59
2022/04/10 11:25:26;;;;;;;5.23;3.13;;;;;;;4.58;97.64;96592.00;10413892;28;20200;-59
2022/04/10 11:30:38;;;;;;;9.53;3.27;;;;;;;6.66;100.00;96573.84;10412649;28;20219;-60
2022/04/10 11:35:41;;;;;;;7.23;3.20;;;;;;;8.20;92.77;96547.59;10412897;28;20189;-57
2022/04/10 11:40:48;;;;;;;6.47;2.63;;;;;;;6.77;75.63;96407.13;10412724;28;20723;-57
2022/04/10 11:45:50;;;;;;;6.27;2.10;;;;;;;7.28;81.72;96520.50;10412404;28;20184;-55
2022/04/10 11:50:51;;;;;;;5.70;2.50;;;;;;;8.74;73.08;96393.63;10411864;28;20236;-56
2022/04/10 11:55:51;;;;;;;5.47;1.93;;;;;;;7.16;69.58;96339.25;10410472;28;20224;-53
2022/04/10 12:00:59;;;;;;;3.70;1.70;;;;;;;8.83;67.38;96336.19;10412115;28;20286;-58
2022/04/10 12:05:59;;;;;;;9.93;2.20;;;;;;;8.49;69.08;96397.81;10411054;28;20185;-54
2022/04/10 12:11:01;;;;;;;7.57;3.47;;;;;;;8.46;61.88;96270.22;10411363;28;20220;-52
2022/04/10 12:16:09;;;;;;;6.63;2.10;;;;;;;8.09;63.83;96338.28;10408098;28;20214;-61
2022/04/10 12:21:09;;;;;;;5.63;1.83;;;;;;;6.53;76.25;96572.31;10402972;28;20216;-56
2022/04/10 12:26:10;;;;;;;6.07;2.67;;;;;;;6.19;84.46;96629.88;10382142;28;20196;-53
2022/04/10 12:31:11;;;;;;;2.73;1.90;;;;;;;5.61;82.69;96583.63;10382165;28;20569;-55
2022/04/10 12:36:21;;;;;;;3.93;2.20;;;;;;;6.73;91.17;96611.41;10382338;28;20193;-59
2022/04/10 12:41:30;;;;;;;5.20;2.00;;;;;;;8.75;76.28;96452.69;10383099;28;20473;-58
2022/04/10 12:46:35;;;;;;;6.03;1.70;;;;;;;10.67;63.51;96308.28;10383330;28;20228;-60
2022/04/10 12:51:35;;;;;;;6.27;2.03;;;;;;;11.03;59.86;96276.41;10382854;28;20217;-60
2022/04/10 12:56:35;;;;;;;6.45;2.28;;;;;;;11.75;57.68;96251.72;10382883;28;20201;-59
2022/04/10 13:01:36;;;;;;;5.05;1.85;;;;;;;12.72;53.76;96194.22;10381037;28;20339;-56
2022/04/10 13:06:47;;;;;;;7.97;1.98;;;;;;;12.02;52.33;96173.47;10382093;28;20896;-55
2022/04/10 13:11:50;;;;;;;3.15;1.48;;;;;;;9.12;63.16;96379.47;10365503;22;20261;-56
2022/04/10 13:16:50;;;;;;;1.67;1.37;;;;;;;8.77;63.13;96373.38;10326875;28;20610;-59
2022/04/10 13:21:51;;;;;;;4.20;1.40;;;;;;;8.80;60.26;96308.59;10319855;28;20301;-54
2022/04/10 13:26:51;;;;;;;4.40;1.53;;;;;;;7.03;65.21;96427.31;10318509;28;20588;-55
2022/04/10 13:31:51;;;;;;;4.00;1.70;;;;;;;5.82;78.78;96668.53;10324065;28;20602;-55
2022/04/10 13:36:52;;;;;;;5.50;2.27;;;;;;;4.64;87.34;96635.66;10327427;28;20563;-52
2022/04/10 13:41:52;;;;;;;4.80;1.20;;;;;;;6.13;81.54;96534.19;10327073;28;20759;-57
2022/04/10 13:46:52;;;;;;;5.33;1.77;;;;;;;7.47;71.49;96414.53;10327532;28;20822;-52
2022/04/10 13:51:53;;;;;;;5.80;1.40;;;;;;;9.61;65.26;96343.06;10327530;28;20221;-51
2022/04/10 13:56:53;;;;;;;3.03;1.53;;;;;;;10.56;59.63;96269.34;10326167;28;20194;-55
2022/04/10 14:01:54;;;;;;;5.85;1.48;;;;;;;10.99;56.30;96214.00;10327313;28;20698;-57
2022/04/10 14:06:54;;;;;;;3.90;1.23;;;;;;;10.96;55.61;96222.19;10326077;28;20596;-58
2022/04/10 14:11:55;;;;;;;6.55;1.48;;;;;;;10.50;57.63;96268.19;10327281;28;20657;-54
2022/04/10 14:16:55;;;;;;;5.70;1.60;;;;;;;8.16;64.10;96405.38;10326491;28;20194;-54
2022/04/10 14:21:55;;;;;;;7.27;2.10;;;;;;;7.11;65.57;96407.41;10332922;28;20288;-51
2022/04/10 14:26:57;;;;;;;5.97;2.27;;;;;;;4.71;76.29;96639.38;10317286;28;20640;-53
2022/04/10 14:31:58;;;;;;;3.93;2.10;;;;;;;6.27;91.17;96631.84;10328414;28;20214;-52
2022/04/10 14:36:59;;;;;;;3.10;1.67;;;;;;;9.36;79.17;96510.28;10332461;28;20264;-52
2022/04/10 14:41:59;;;;;;;3.23;1.50;;;;;;;10.52;66.46;96355.28;10333519;28;20759;-50
2022/04/10 14:47:01;;;;;;;5.40;2.23;;;;;;;10.12;69.46;96466.81;10332164;28;20237;-51
2022/04/10 14:52:02;;;;;;;2.40;1.83;;;;;;;8.93;68.63;96463.13;10332962;28;20229;-54
2022/04/10 14:57:03;;;;;;;3.87;1.67;;;;;;;7.30;74.20;96543.81;10331733;28;20642;-57
2022/04/10 15:02:04;;;;;;;14.83;10.20;;;;;;;6.54;77.77;96583.53;10332533;28;20248;-57
2022/04/10 15:07:04;;;;;;;9.83;8.13;;;;;;;6.30;79.62;96613.34;10332681;28;20616;-52
2022/04/10 15:12:07;;;;;;;4.37;1.90;;;;;;;6.16;83.86;96660.56;10332429;28;20234;-54
2022/04/10 15:17:07;;;;;;;54.40;28.33;;;;;;;9.25;78.28;96565.44;10332278;28;20233;-55
2022/04/10 15:22:07;;;;;;;8.77;6.00;;;;;;;11.28;66.17;96420.50;10332831;28;20217;-59
2022/04/10 15:27:15;;;;;;;4.77;3.03;;;;;;;10.39;66.26;96437.94;10331574;28;20201;-53
2022/04/10 15:32:15;;;;;;;3.90;1.60;;;;;;;8.79;71.11;96534.22;10331629;28;20248;-55
2022/04/10 15:37:15;;;;;;;2.40;1.60;;;;;;;7.26;73.74;96539.84;10331108;28;20197;-56
2022/04/10 15:42:17;;;;;;;8.10;3.40;;;;;;;5.33;79.70;96627.47;10331036;28;20210;-56
2022/04/10 15:47:18;;;;;;;2.63;1.90;;;;;;;5.02;83.28;96716.59;10323558;28;20250;-53
2022/04/10 15:52:18;;;;;;;2.87;1.83;;;;;;;4.40;96.00;96685.88;10330297;28;20222;-58
2022/04/10 15:57:22;;;;;;;5.47;3.90;;;;;;;6.68;97.78;96668.28;10330538;28;20229;-56
2022/04/10 16:02:22;;;;;;;16.33;9.03;;;;;;;10.21;79.61;96563.69;10329917;28;20245;-59
2022/04/10 16:07:22;;;;;;;2.63;1.10;;;;;;;10.83;70.71;96498.72;10328981;28;20198;-55
2022/04/10 16:12:23;;;;;;;10.43;4.97;;;;;;;9.85;69.62;96487.97;10330000;28;20288;-55
2022/04/10 16:17:23;;;;;;;2.77;1.47;;;;;;;6.86;81.37;96674.47;10329903;28;20256;-56
2022/04/10 16:22:24;;;;;;;2.63;1.53;;;;;;;5.97;87.79;96677.72;10329841;28;20214;-55
2022/04/10 16:32:46;;;;;;;2.00;1.70;;;;;;;4.19;97.06;96667.63;10329354;28;20220;-56
2022/04/10 16:37:47;;;;;;;2.60;2.17;;;;;;;4.03;100.00;96672.34;10329089;28;20193;-55
2022/04/10 16:42:48;;;;;;;1.57;1.47;;;;;;;4.38;100.00;96655.81;10329532;28;20644;-56
2022/04/10 16:47:49;;;;;;;1.83;1.53;;;;;;;4.07;99.01;96653.00;10327907;28;20182;-56
2022/04/10 16:52:49;;;;;;;2.63;1.60;;;;;;;4.12;99.86;96671.66;10328284;28;20221;-55
2022/04/10 16:57:50;;;;;;;8.37;4.60;;;;;;;3.47;100.00;96699.75;10330002;28;20197;-54
2022/04/10 17:02:52;;;;;;;4.30;3.20;;;;;;;2.92;100.00;96704.59;10324256;28;20756;-52
2022/04/10 17:07:52;;;;;;;1.40;1.30;;;;;;;2.58;100.00;96688.84;10319721;28;20281;-57
2022/04/10 17:12:52;;;;;;;2.07;1.63;;;;;;;2.13;100.00;96686.78;10319274;28;20236;-56
2022/04/10 17:17:53;;;;;;;3.57;2.30;;;;;;;2.09;100.00;96690.50;10319218;28;20225;-58
2022/04/10 17:22:53;;;;;;;4.33;2.40;;;;;;;1.93;100.00;96697.59;10320191;28;20210;-52
2022/04/10 17:27:54;;;;;;;7.60;2.57;;;;;;;1.91;100.00;96702.06;10318789;28;20285;-54
2022/04/10 17:32:55;;;;;;;3.80;2.50;;;;;;;1.95;100.00;96713.84;10318907;28;20226;-54
2022/04/10 17:37:55;;;;;;;6.40;2.90;;;;;;;2.13;100.00;96751.38;10319621;28;20923;-55
2022/04/10 17:42:55;;;;;;;6.17;2.57;;;;;;;2.31;100.00;96733.81;10319129;28;20359;-58
2022/04/10 17:47:56;;;;;;;3.47;2.80;;;;;;;1.84;100.00;96736.97;10318977;28;20194;-56
2022/04/10 17:52:56;;;;;;;3.40;3.10;;;;;;;1.70;100.00;96731.00;10321214;28;20593;-58
2022/04/10 17:57:57;;;;;;;3.67;3.20;;;;;;;1.74;100.00;96737.59;10326732;28;20699;-59
2022/04/10 18:02:57;;;;;;;5.47;3.80;;;;;;;1.63;100.00;96737.47;10326691;28;20336;-57
2022/04/10 18:07:57;;;;;;;9.87;6.80;;;;;;;1.56;100.00;96733.63;10325991;28;20688;-58
2022/04/10 18:12:58;;;;;;;3.23;2.93;;;;;;;1.54;100.00;96740.66;10326308;28;20323;-55
2022/04/10 18:17:58;;;;;;;7.03;4.33;;;;;;;1.67;100.00;96748.41;10324992;28;20203;-59
2022/04/10 18:22:59;;;;;;;6.53;3.87;;;;;;;1.73;100.00;96746.28;10327349;28;20216;-54
2022/04/10 18:27:59;;;;;;;6.23;4.63;;;;;;;1.78;100.00;96748.56;10324346;28;20288;-54
2022/04/10 18:33:02;;;;;;;8.67;3.93;;;;;;;1.77;100.00;96757.22;10325697;28;20320;-56
2022/04/10 18:38:02;;;;;;;6.90;4.07;;;;;;;1.89;100.00;96825.34;10324277;28;20201;-57
2022/04/10 18:43:06;;;;;;;3.37;2.70;;;;;;;1.18;100.00;96819.50;10324255;28;20216;-54
2022/04/10 18:48:07;;;;;;;2.67;2.20;;;;;;;1.01;100.00;96815.38;10325500;28;20280;-59
2022/04/10 18:53:08;;;;;;;3.87;2.47;;;;;;;0.92;100.00;96806.47;10324783;28;20229;-58
2022/04/10 18:58:08;;;;;;;2.90;2.70;;;;;;;0.72;100.00;96810.28;10322839;28;20225;-55
2022/04/10 19:03:09;;;;;;;4.00;2.47;;;;;;;0.69;100.00;96811.28;10320819;28;20218;-55
2022/04/10 19:08:13;;;;;;;2.97;2.30;;;;;;;0.65;100.00;96814.13;10326698;28;20194;-52
2022/04/10 19:13:13;;;;;;;19.90;11.97;;;;;;;0.48;100.00;96813.38;10431215;22;20243;-58
2022/04/10 19:18:14;;;;;;;6.03;4.57;;;;;;;0.54;100.00;96814.78;10453598;28;20272;-59
2022/04/10 19:23:14;;;;;;;10.43;6.23;;;;;;;0.60;100.00;96822.16;10477111;28;20238;-58
2022/04/10 19:28:15;;;;;;;11.87;6.43;;;;;;;0.73;100.00;96835.13;10494424;28;20252;-56
2022/04/10 19:33:15;;;;;;;12.17;6.43;;;;;;;0.82;100.00;96838.91;10494108;28;20776;-56
2022/04/10 19:38:18;;;;;;;3.83;3.43;;;;;;;0.94;100.00;96835.56;10494008;28;20202;-56
2022/04/10 19:43:18;;;;;;;3.73;2.80;;;;;;;1.10;100.00;96842.38;10494069;28;20229;-57
2022/04/10 19:48:18;;;;;;;3.10;2.80;;;;;;;1.13;100.00;96842.19;10494300;28;20193;-57
2022/04/10 19:53:40;;;;;;;5.00;2.47;;;;;;;1.12;100.00;96848.25;10478521;28;20218;-55
2022/04/10 19:58:42;;;;;;;3.00;2.80;;;;;;;1.23;100.00;96851.84;10473679;28;20876;-55
2022/04/10 20:03:43;;;;;;;4.23;2.53;;;;;;;1.11;100.00;96852.59;10492868;28;20375;-56
2022/04/10 20:08:44;;;;;;;5.20;2.80;;;;;;;1.29;100.00;96845.47;10493221;28;20259;-56
2022/04/10 20:13:46;;;;;;;4.67;2.67;;;;;;;1.25;100.00;96849.16;10491455;28;20238;-59
2022/04/10 20:18:47;;;;;;;5.50;2.87;;;;;;;1.13;100.00;96843.00;10491225;28;20226;-58
2022/04/10 20:23:47;;;;;;;5.93;3.50;;;;;;;1.08;100.00;96851.97;10476852;28;20207;-56
2022/04/10 20:28:48;;;;;;;3.83;3.37;;;;;;;0.92;100.00;96850.31;10479342;28;20684;-55
2022/04/10 20:33:48;;;;;;;3.90;3.50;;;;;;;0.86;100.00;96851.50;10493541;28;20242;-56
2022/04/10 20:38:49;;;;;;;4.37;3.23;;;;;;;0.80;100.00;96866.53;10493014;28;20223;-54
2022/04/10 20:43:49;;;;;;;3.83;3.23;;;;;;;0.69;100.00;96870.56;10493491;28;20207;-56
2022/04/10 20:48:50;;;;;;;6.03;3.03;;;;;;;0.42;100.00;96872.22;10491628;28;20209;-59
2022/04/10 20:53:50;;;;;;;5.30;4.10;;;;;;;0.13;100.00;96878.13;10492789;28;20320;-58
2022/04/10 20:58:50;;;;;;;4.93;3.80;;;;;;;0.12;100.00;96886.78;10493057;28;20280;-55
2022/04/10 21:03:51;;;;;;;6.03;3.93;;;;;;;-0.10;100.00;96889.72;10492422;28;20214;-54
2022/04/10 21:08:55;;;;;;;5.27;4.07;;;;;;;-0.14;100.00;96895.94;10492620;28;20198;-54
2022/04/10 21:13:56;;;;;;;4.37;3.77;;;;;;;-0.21;100.00;96903.19;10491919;28;20262;-56
2022/04/10 21:18:56;;;;;;;7.37;4.00;;;;;;;-0.19;100.00;96913.41;10492703;28;20225;-53
2022/04/10 21:23:57;;;;;;;6.60;3.77;;;;;;;-0.16;100.00;96915.81;10492388;28;20734;-56
2022/04/10 21:28:57;;;;;;;5.33;3.97;;;;;;;-0.23;100.00;96917.06;10496824;28;20196;-53
2022/04/10 21:33:58;;;;;;;4.37;3.63;;;;;;;-0.15;100.00;96919.22;10500769;28;20306;-55
2022/04/10 21:38:59;;;;;;;8.73;3.53;;;;;;;-0.17;100.00;96921.88;10499968;28;20199;-56
2022/04/10 21:43:59;;;;;;;5.63;3.33;;;;;;;-0.21;100.00;96931.50;10500859;28;20705;-57
2022/04/10 21:49:00;;;;;;;4.57;3.40;;;;;;;-0.25;100.00;96937.72;10499003;28;20199;-57
2022/04/10 21:54:00;;;;;;;5.33;3.37;;;;;;;-0.08;100.00;96935.97;10499688;28;20284;-55
2022/04/10 21:59:00;;;;;;;6.37;3.47;;;;;;;-0.07;100.00;96930.75;10499237;28;20191;-54
2022/04/10 22:04:03;;;;;;;9.17;3.37;;;;;;;-0.05;100.00;96928.91;10499578;28;20219;-59
2022/04/10 22:09:06;;;;;;;4.77;2.93;;;;;;;-0.09;100.00;96935.16;10497467;28;20185;-58
2022/04/10 22:14:07;;;;;;;4.13;3.10;;;;;;;-0.26;100.00;96932.66;10498764;28;20250;-53
2022/04/10 22:19:07;;;;;;;6.57;3.30;;;;;;;-0.69;100.00;96940.97;10498652;28;20194;-56
2022/04/10 22:24:07;;;;;;;5.80;3.90;;;;;;;-1.04;100.00;96941.09;10498138;28;20710;-59
2022/04/10 22:29:08;;;;;;;7.23;4.30;;;;;;;-1.12;100.00;96936.34;10498027;28;20664;-57
2022/04/10 22:34:08;;;;;;;8.13;4.57;;;;;;;-1.30;100.00;96938.09;10497698;28;20280;-56
2022/04/10 22:39:08;;;;;;;8.80;4.80;;;;;;;-1.36;100.00;96945.25;10497563;28;20199;-54
2022/04/10 22:44:09;;;;;;;8.27;5.30;;;;;;;-1.31;100.00;96943.31;10497660;28;20241;-52
2022/04/10 22:49:09;;;;;;;7.43;5.67;;;;;;;-1.42;100.00;96950.72;10497173;28;20690;-57
2022/04/10 22:54:11;;;;;;;6.83;4.93;;;;;;;-1.40;100.00;96951.50;10497455;28;20716;-55
2022/04/10 22:59:11;;;;;;;7.20;4.33;;;;;;;-1.41;100.00;96955.78;10496795;28;20656;-56
2022/04/10 23:04:12;;;;;;;7.47;5.27;;;;;;;-1.50;100.00;96958.81;10496855;28;20441;-62
2022/04/10 23:09:17;;;;;;;8.10;4.43;;;;;;;-1.51;100.00;96962.28;10496300;28;20225;-53
2022/04/10 23:14:17;;;;;;;10.77;5.03;;;;;;;-1.49;100.00;96966.44;10496695;28;20235;-59
2022/04/10 23:19:18;;;;;;;7.50;4.07;;;;;;;-1.46;100.00;96968.03;10495603;28;20187;-59
2022/04/10 23:24:18;;;;;;;10.77;5.37;;;;;;;-1.46;100.00;96971.41;10496503;28;20575;-57
2022/04/10 23:29:18;;;;;;;10.27;4.87;;;;;;;-1.49;100.00;96963.88;10495709;28;20726;-60
2022/04/10 23:34:19;;;;;;;11.73;5.43;;;;;;;-1.48;100.00;96972.44;10496080;28;20586;-55
2022/04/10 23:39:19;;;;;;;7.97;4.63;;;;;;;-1.50;100.00;96972.50;10495783;28;20605;-59